sensor_id;sensor_type;location;lat;lon;timestamp;pressure;altitude;pressure_sealevel;temperature;humidity
43436;BME280;36399;51.444;-2.018;2023-09-07T00:00:15;101229.88;;;20.43;100.00
43436;BME280;36399;51.444;-2.018;2023-09-07T00:02:41;101219.19;;;20.45;100.00
43436;BME280;36399;51.444;-2.018;2023-09-07T00:05:07;101206.75;;;20.44;100.00
43436;BME280;36399;51.444;-2.018;2023-09-07T00:07:34;101205.91;;;20.42;100.00
43436;BME280;36399;51.444;-2.018;2023-09-07T00:10:00;101201.53;;;20.35;100.00
43436;BME280;36399;51.444;-2.018;2023-09-07T00:12:26;101192.81;;;20.22;100.00
43436;BME280;36399;51.444;-2.018;2023-09-07T00:14:57;101176.97;;;20.11;100.00
43436;BME280;36399;51.444;-2.018;2023-09-07T00:17:23;101171.78;;;20.04;100.00
43436;BME280;36399;51.444;-2.018;2023-09-07T00:19:50;101180.69;;;20.01;100.00
43436;BME280;36399;51.444;-2.018;2023-09-07T00:22:17;101186.03;;;20.01;100.00
43436;BME280;36399;51.444;-2.018;2023-09-07T00:24:44;101184.31;;;19.97;100.00
43436;BME280;36399;51.444;-2.018;2023-09-07T00:27:10;101179.06;;;19.91;100.00
43436;BME280;36399;51.444;-2.018;2023-09-07T00:29:38;101185.31;;;19.89;100.00
43436;BME280;36399;51.444;-2.018;2023-09-07T00:32:04;101193.34;;;19.87;100.00
43436;BME280;36399;51.444;-2.018;2023-09-07T00:34:30;101201.34;;;19.87;100.00
43436;BME280;36399;51.444;-2.018;2023-09-07T00:36:57;101209.28;;;19.90;100.00
43436;BME280;36399;51.444;-2.018;2023-09-07T00:39:23;101204.00;;;19.87;100.00
43436;BME280;36399;51.444;-2.018;2023-09-07T00:41:49;101200.53;;;19.82;100.00
43436;BME280;36399;51.444;-2.018;2023-09-07T00:44:15;101195.16;;;19.85;100.00
43436;BME280;36399;51.444;-2.018;2023-09-07T00:46:42;101206.72;;;19.82;100.00
43436;BME280;36399;51.444;-2.018;2023-09-07T00:49:11;101205.84;;;19.82;100.00
43436;BME280;36399;51.444;-2.018;2023-09-07T00:51:37;101203.16;;;19.83;100.00
43436;BME280;36399;51.444;-2.018;2023-09-07T00:54:03;101207.59;;;19.84;100.00
43436;BME280;36399;51.444;-2.018;2023-09-07T00:56:29;101197.78;;;19.87;100.00
43436;BME280;36399;51.444;-2.018;2023-09-07T00:58:55;101189.78;;;19.88;100.00
43436;BME280;36399;51.444;-2.018;2023-09-07T01:01:26;101193.28;;;19.90;100.00
43436;BME280;36399;51.444;-2.018;2023-09-07T01:03:52;101198.63;;;19.90;100.00
43436;BME280;36399;51.444;-2.018;2023-09-07T01:06:29;101194.22;;;19.88;100.00
43436;BME280;36399;51.444;-2.018;2023-09-07T01:09:00;101195.13;;;19.87;100.00
43436;BME280;36399;51.444;-2.018;2023-09-07T01:11:36;101193.38;;;19.85;100.00
43436;BME280;36399;51.444;-2.018;2023-09-07T01:14:02;101180.94;;;19.84;100.00
43436;BME280;36399;51.444;-2.018;2023-09-07T01:16:32;101173.91;;;19.79;100.00
43436;BME280;36399;51.444;-2.018;2023-09-07T01:19:06;101166.84;;;19.75;100.00
43436;BME280;36399;51.444;-2.018;2023-09-07T01:21:35;101179.28;;;19.74;100.00
43436;BME280;36399;51.444;-2.018;2023-09-07T01:24:03;101174.84;;;19.73;100.00
43436;BME280;36399;51.444;-2.018;2023-09-07T01:26:30;101167.78;;;19.71;100.00
43436;BME280;36399;51.444;-2.018;2023-09-07T01:28:56;101166.00;;;19.71;100.00
43436;BME280;36399;51.444;-2.018;2023-09-07T01:31:22;101169.53;;;19.72;100.00
43436;BME280;36399;51.444;-2.018;2023-09-07T01:33:48;101169.53;;;19.72;100.00
43436;BME280;36399;51.444;-2.018;2023-09-07T01:36:14;101171.34;;;19.70;100.00
43436;BME280;36399;51.444;-2.018;2023-09-07T01:38:40;101167.75;;;19.72;100.00
43436;BME280;36399;51.444;-2.018;2023-09-07T01:41:06;101166.91;;;19.69;100.00
43436;BME280;36399;51.444;-2.018;2023-09-07T01:43:31;101169.63;;;19.66;100.00
43436;BME280;36399;51.444;-2.018;2023-09-07T01:45:57;101165.06;;;19.74;100.00
43436;BME280;36399;51.444;-2.018;2023-09-07T01:48:23;101163.34;;;19.70;100.00
43436;BME280;36399;51.444;-2.018;2023-09-07T01:50:53;101174.06;;;19.67;100.00
43436;BME280;36399;51.444;-2.018;2023-09-07T01:53:19;101156.34;;;19.63;100.00
43436;BME280;36399;51.444;-2.018;2023-09-07T01:55:45;101159.09;;;19.57;100.00
43436;BME280;36399;51.444;-2.018;2023-09-07T01:58:11;101155.50;;;19.59;100.00
43436;BME280;36399;51.444;-2.018;2023-09-07T02:00:37;101154.66;;;19.56;100.00
43436;BME280;36399;51.444;-2.018;2023-09-07T02:03:05;101154.66;;;19.56;100.00
43436;BME280;36399;51.444;-2.018;2023-09-07T02:05:31;101152.91;;;19.51;100.00
43436;BME280;36399;51.444;-2.018;2023-09-07T02:07:58;101157.28;;;19.59;100.00
43436;BME280;36399;51.444;-2.018;2023-09-07T02:10:24;101158.25;;;19.54;100.00
43436;BME280;36399;51.444;-2.018;2023-09-07T02:12:50;101155.41;;;19.67;100.00
43436;BME280;36399;51.444;-2.018;2023-09-07T02:15:16;101148.28;;;19.69;100.00
43436;BME280;36399;51.444;-2.018;2023-09-07T02:17:42;101150.03;;;19.70;100.00
43436;BME280;36399;51.444;-2.018;2023-09-07T02:20:13;101141.97;;;19.74;100.00
43436;BME280;36399;51.444;-2.018;2023-09-07T02:22:39;101139.41;;;19.68;100.00
43436;BME280;36399;51.444;-2.018;2023-09-07T02:25:06;101133.38;;;19.56;100.00
43436;BME280;36399;51.444;-2.018;2023-09-07T02:27:33;101130.78;;;19.46;100.00
43436;BME280;36399;51.444;-2.018;2023-09-07T02:29:59;101131.72;;;19.42;100.00
43436;BME280;36399;51.444;-2.018;2023-09-07T02:32:25;101129.19;;;19.35;100.00
43436;BME280;36399;51.444;-2.018;2023-09-07T02:34:51;101130.00;;;19.38;100.00
43436;BME280;36399;51.444;-2.018;2023-09-07T02:37:17;101138.81;;;19.43;100.00
43436;BME280;36399;51.444;-2.018;2023-09-07T02:39:43;101134.47;;;19.36;100.00
43436;BME280;36399;51.444;-2.018;2023-09-07T02:42:09;101138.06;;;19.34;100.00
43436;BME280;36399;51.444;-2.018;2023-09-07T02:44:35;101138.97;;;19.31;100.00
43436;BME280;36399;51.444;-2.018;2023-09-07T02:47:01;101142.53;;;19.30;100.00
43436;BME280;36399;51.444;-2.018;2023-09-07T02:49:27;101139.81;;;19.35;100.00
43436;BME280;36399;51.444;-2.018;2023-09-07T02:51:53;101137.22;;;19.30;100.00
43436;BME280;36399;51.444;-2.018;2023-09-07T02:54:19;101135.47;;;19.29;100.00
43436;BME280;36399;51.444;-2.018;2023-09-07T02:56:45;101134.59;;;19.27;100.00
43436;BME280;36399;51.444;-2.018;2023-09-07T02:59:11;101140.88;;;19.20;100.00
43436;BME280;36399;51.444;-2.018;2023-09-07T03:01:38;101137.38;;;19.15;100.00
43436;BME280;36399;51.444;-2.018;2023-09-07T03:04:05;101146.25;;;19.14;100.00
43436;BME280;36399;51.444;-2.018;2023-09-07T03:06:31;101137.41;;;19.12;100.00
43436;BME280;36399;51.444;-2.018;2023-09-07T03:08:57;101152.47;;;19.13;100.00
43436;BME280;36399;51.444;-2.018;2023-09-07T03:11:23;101146.41;;;19.02;100.00
43436;BME280;36399;51.444;-2.018;2023-09-07T03:13:49;101138.50;;;18.96;100.00
43436;BME280;36399;51.444;-2.018;2023-09-07T03:16:15;101131.53;;;18.84;100.00
43436;BME280;36399;51.444;-2.018;2023-09-07T03:18:41;101132.47;;;18.78;100.00
43436;BME280;36399;51.444;-2.018;2023-09-07T03:21:07;101137.81;;;18.72;100.00
43436;BME280;36399;51.444;-2.018;2023-09-07T03:23:33;101141.47;;;18.62;100.00
43436;BME280;36399;51.444;-2.018;2023-09-07T03:25:59;101141.50;;;18.56;100.00
43436;BME280;36399;51.444;-2.018;2023-09-07T03:28:25;101144.19;;;18.51;100.00
43436;BME280;36399;51.444;-2.018;2023-09-07T03:30:53;101138.94;;;18.45;100.00
43436;BME280;36399;51.444;-2.018;2023-09-07T03:33:19;101142.53;;;18.41;100.00
43436;BME280;36399;51.444;-2.018;2023-09-07T03:35:45;101141.69;;;18.35;100.00
43436;BME280;36399;51.444;-2.018;2023-09-07T03:38:11;101147.97;;;18.26;100.00
43436;BME280;36399;51.444;-2.018;2023-09-07T03:40:37;101146.22;;;18.22;100.00
43436;BME280;36399;51.444;-2.018;2023-09-07T03:43:03;101147.13;;;18.15;100.00
43436;BME280;36399;51.444;-2.018;2023-09-07T03:45:29;101145.38;;;18.12;100.00
43436;BME280;36399;51.444;-2.018;2023-09-07T03:47:56;101155.16;;;18.10;100.00
43436;BME280;36399;51.444;-2.018;2023-09-07T03:50:22;101156.94;;;18.08;100.00
43436;BME280;36399;51.444;-2.018;2023-09-07T03:52:48;101159.59;;;18.05;100.00
43436;BME280;36399;51.444;-2.018;2023-09-07T03:55:14;101157.88;;;18.01;100.00
43436;BME280;36399;51.444;-2.018;2023-09-07T03:57:40;101161.41;;;18.00;100.00
43436;BME280;36399;51.444;-2.018;2023-09-07T04:00:07;101171.19;;;17.93;100.00
43436;BME280;36399;51.444;-2.018;2023-09-07T04:02:34;101176.50;;;17.96;100.00
43436;BME280;36399;51.444;-2.018;2023-09-07T04:05:00;101174.69;;;18.00;100.00
43436;BME280;36399;51.444;-2.018;2023-09-07T04:07:31;101170.31;;;17.93;100.00
43436;BME280;36399;51.444;-2.018;2023-09-07T04:09:57;101176.56;;;17.86;100.00
43436;BME280;36399;51.444;-2.018;2023-09-07T04:12:24;101177.47;;;17.80;100.00
43436;BME280;36399;51.444;-2.018;2023-09-07T04:14:50;101182.81;;;17.77;100.00
43436;BME280;36399;51.444;-2.018;2023-09-07T04:17:15;101189.91;;;17.67;100.00
43436;BME280;36399;51.444;-2.018;2023-09-07T04:19:41;101196.09;;;17.62;100.00
43436;BME280;36399;51.444;-2.018;2023-09-07T04:22:10;101190.81;;;17.56;100.00
43436;BME280;36399;51.444;-2.018;2023-09-07T04:24:36;101188.19;;;17.50;100.00
43436;BME280;36399;51.444;-2.018;2023-09-07T04:27:03;101194.41;;;17.46;100.00
43436;BME280;36399;51.444;-2.018;2023-09-07T04:29:29;101198.84;;;17.45;100.00
43436;BME280;36399;51.444;-2.018;2023-09-07T04:31:56;101203.25;;;17.49;100.00
43436;BME280;36399;51.444;-2.018;2023-09-07T04:34:22;101210.34;;;17.46;100.00
43436;BME280;36399;51.444;-2.018;2023-09-07T04:36:48;101210.34;;;17.44;100.00
43436;BME280;36399;51.444;-2.018;2023-09-07T04:39:14;101216.53;;;17.46;100.00
43436;BME280;36399;51.444;-2.018;2023-09-07T04:41:40;101220.06;;;17.48;100.00
43436;BME280;36399;51.444;-2.018;2023-09-07T04:44:07;101222.72;;;17.45;100.00
43436;BME280;36399;51.444;-2.018;2023-09-07T04:46:33;101223.63;;;17.41;100.00
43436;BME280;36399;51.444;-2.018;2023-09-07T04:49:01;101225.38;;;17.42;100.00
43436;BME280;36399;51.444;-2.018;2023-09-07T04:51:27;101228.91;;;17.47;100.00
43436;BME280;36399;51.444;-2.018;2023-09-07T04:53:53;101230.66;;;17.53;100.00
43436;BME280;36399;51.444;-2.018;2023-09-07T04:56:19;101234.19;;;17.55;100.00
43436;BME280;36399;51.444;-2.018;2023-09-07T04:58:47;101235.94;;;17.60;100.00
43436;BME280;36399;51.444;-2.018;2023-09-07T05:01:13;101243.03;;;17.67;100.00
43436;BME280;36399;51.444;-2.018;2023-09-07T05:03:39;101245.69;;;17.72;100.00
43436;BME280;36399;51.444;-2.018;2023-09-07T05:06:08;101235.94;;;17.73;100.00
43436;BME280;36399;51.444;-2.018;2023-09-07T05:08:34;101243.03;;;17.74;100.00
43436;BME280;36399;51.444;-2.018;2023-09-07T05:11:02;101243.91;;;17.73;100.00
43436;BME280;36399;51.444;-2.018;2023-09-07T05:13:31;101229.72;;;17.64;100.00
43436;BME280;36399;51.444;-2.018;2023-09-07T05:15:58;101226.22;;;17.59;100.00
43436;BME280;36399;51.444;-2.018;2023-09-07T05:18:25;101225.34;;;17.54;100.00
43436;BME280;36399;51.444;-2.018;2023-09-07T05:20:51;101229.75;;;17.55;100.00
43436;BME280;36399;51.444;-2.018;2023-09-07T05:23:21;101229.78;;;17.49;100.00
43436;BME280;36399;51.444;-2.018;2023-09-07T05:25:49;101228.00;;;17.54;100.00
43436;BME280;36399;51.444;-2.018;2023-09-07T05:28:19;101226.22;;;17.53;100.00
43436;BME280;36399;51.444;-2.018;2023-09-07T05:30:45;101232.44;;;17.52;100.00
43436;BME280;36399;51.444;-2.018;2023-09-07T05:33:13;101234.19;;;17.56;100.00
43436;BME280;36399;51.444;-2.018;2023-09-07T05:35:39;101229.78;;;17.51;100.00
43436;BME280;36399;51.444;-2.018;2023-09-07T05:38:05;101232.44;;;17.48;100.00
43436;BME280;36399;51.444;-2.018;2023-09-07T05:40:42;101235.13;;;17.40;100.00
43436;BME280;36399;51.444;-2.018;2023-09-07T05:43:10;101232.47;;;17.37;100.00
43436;BME280;36399;51.444;-2.018;2023-09-07T05:45:40;101236.91;;;17.33;100.00
43436;BME280;36399;51.444;-2.018;2023-09-07T05:48:07;101245.75;;;17.34;100.00
43436;BME280;36399;51.444;-2.018;2023-09-07T05:50:34;101260.78;;;17.38;100.00
43436;BME280;36399;51.444;-2.018;2023-09-07T05:53:01;101261.69;;;17.39;100.00
43436;BME280;36399;51.444;-2.018;2023-09-07T05:55:27;101269.63;;;17.40;100.00
43436;BME280;36399;51.444;-2.018;2023-09-07T05:57:57;101262.56;;;17.39;100.00
43436;BME280;36399;51.444;-2.018;2023-09-07T06:00:23;101263.44;;;17.41;100.00
43436;BME280;36399;51.444;-2.018;2023-09-07T06:02:50;101266.09;;;17.44;100.00
43436;BME280;36399;51.444;-2.018;2023-09-07T06:05:16;101269.59;;;17.49;100.00
43436;BME280;36399;51.444;-2.018;2023-09-07T06:07:43;101270.44;;;17.60;100.00
43436;BME280;36399;51.444;-2.018;2023-09-07T06:10:10;101279.31;;;17.69;100.00
43436;BME280;36399;51.444;-2.018;2023-09-07T06:12:36;101274.88;;;17.80;100.00
43436;BME280;36399;51.444;-2.018;2023-09-07T06:15:02;101275.72;;;17.89;100.00
43436;BME280;36399;51.444;-2.018;2023-09-07T06:17:29;101278.34;;;17.94;100.00
43436;BME280;36399;51.444;-2.018;2023-09-07T06:19:55;101269.47;;;17.98;100.00
43436;BME280;36399;51.444;-2.018;2023-09-07T06:22:22;101274.75;;;18.07;100.00
43436;BME280;36399;51.444;-2.018;2023-09-07T06:24:49;101269.38;;;18.13;100.00
43436;BME280;36399;51.444;-2.018;2023-09-07T06:27:15;101277.31;;;18.28;100.00
43436;BME280;36399;51.444;-2.018;2023-09-07T06:29:40;101262.22;;;18.34;100.00
43436;BME280;36399;51.444;-2.018;2023-09-07T06:32:06;101261.25;;;18.44;100.00
43436;BME280;36399;51.444;-2.018;2023-09-07T06:34:32;101254.19;;;18.38;100.00
43436;BME280;36399;51.444;-2.018;2023-09-07T06:36:58;101252.38;;;18.43;100.00
43436;BME280;36399;51.444;-2.018;2023-09-07T06:39:24;101244.44;;;18.39;100.00
43436;BME280;36399;51.444;-2.018;2023-09-07T06:41:50;101247.06;;;18.45;100.00
43436;BME280;36399;51.444;-2.018;2023-09-07T06:44:16;101248.75;;;18.55;100.00
43436;BME280;36399;51.444;-2.018;2023-09-07T06:46:42;101248.72;;;18.64;100.00
43436;BME280;36399;51.444;-2.018;2023-09-07T06:49:08;101243.41;;;18.64;100.00
43436;BME280;36399;51.444;-2.018;2023-09-07T06:51:34;101238.91;;;18.69;100.00
43436;BME280;36399;51.444;-2.018;2023-09-07T06:54:00;101233.59;;;18.74;100.00
43436;BME280;36399;51.444;-2.018;2023-09-07T06:56:26;101229.03;;;18.86;100.00
43436;BME280;36399;51.444;-2.018;2023-09-07T06:58:52;101215.69;;;18.92;100.00
43436;BME280;36399;51.444;-2.018;2023-09-07T07:01:19;101220.91;;;19.02;100.00
43436;BME280;36399;51.444;-2.018;2023-09-07T07:03:45;101202.16;;;19.12;100.00
43436;BME280;36399;51.444;-2.018;2023-09-07T07:06:11;101202.78;;;19.39;100.00
43436;BME280;36399;51.444;-2.018;2023-09-07T07:08:37;101190.13;;;19.61;100.00
43436;BME280;36399;51.444;-2.018;2023-09-07T07:11:03;101175.69;;;19.77;100.00
43436;BME280;36399;51.444;-2.018;2023-09-07T07:13:29;101152.47;;;19.88;100.00
43436;BME280;36399;51.444;-2.018;2023-09-07T07:15:55;101138.03;;;20.03;100.00
43436;BME280;36399;51.444;-2.018;2023-09-07T07:18:21;101119.72;;;20.37;100.00
43436;BME280;36399;51.444;-2.018;2023-09-07T07:20:47;101106.94;;;20.57;100.00
43436;BME280;36399;51.444;-2.018;2023-09-07T07:23:12;101078.34;;;20.65;100.00
43436;BME280;36399;51.444;-2.018;2023-09-07T07:25:38;101051.84;;;20.56;100.00
43436;BME280;36399;51.444;-2.018;2023-09-07T07:28:05;101041.13;;;20.58;100.00
43436;BME280;36399;51.444;-2.018;2023-09-07T07:30:33;101031.88;;;20.75;100.00
43436;BME280;36399;51.444;-2.018;2023-09-07T07:32:59;101012.88;;;20.92;100.00
43436;BME280;36399;51.444;-2.018;2023-09-07T07:35:25;100987.88;;;20.96;100.00
43436;BME280;36399;51.444;-2.018;2023-09-07T07:37:51;100972.59;;;21.03;100.00
43436;BME280;36399;51.444;-2.018;2023-09-07T07:40:17;100971.00;;;20.96;100.00
43436;BME280;36399;51.444;-2.018;2023-09-07T07:42:44;100966.47;;;20.99;100.00
43436;BME280;36399;51.444;-2.018;2023-09-07T07:45:12;100968.00;;;21.09;100.00
43436;BME280;36399;51.444;-2.018;2023-09-07T07:47:39;100966.09;;;21.15;100.00
43436;BME280;36399;51.444;-2.018;2023-09-07T07:50:06;100966.16;;;21.13;100.00
43436;BME280;36399;51.444;-2.018;2023-09-07T07:52:32;100962.41;;;21.20;100.00
43436;BME280;36399;51.444;-2.018;2023-09-07T07:54:58;100956.75;;;21.37;100.00
43436;BME280;36399;51.444;-2.018;2023-09-07T07:57:23;100948.63;;;21.41;100.00
43436;BME280;36399;51.444;-2.018;2023-09-07T07:59:49;100937.78;;;21.48;100.00
43436;BME280;36399;51.444;-2.018;2023-09-07T08:02:16;100935.66;;;21.62;100.00
43436;BME280;36399;51.444;-2.018;2023-09-07T08:04:42;100932.38;;;21.51;100.00
43436;BME280;36399;51.444;-2.018;2023-09-07T08:07:08;100928.53;;;21.61;100.00
43436;BME280;36399;51.444;-2.018;2023-09-07T08:09:34;100940.88;;;21.66;100.00
43436;BME280;36399;51.444;-2.018;2023-09-07T08:12:01;100927.03;;;21.86;100.00
43436;BME280;36399;51.444;-2.018;2023-09-07T08:14:30;100927.69;;;21.94;100.00
43436;BME280;36399;51.444;-2.018;2023-09-07T08:16:57;100932.81;;;22.03;100.00
43436;BME280;36399;51.444;-2.018;2023-09-07T08:19:23;100908.63;;;22.08;100.00
43436;BME280;36399;51.444;-2.018;2023-09-07T08:21:49;100915.16;;;22.29;100.00
43436;BME280;36399;51.444;-2.018;2023-09-07T08:24:15;100909.00;;;22.27;100.00
43436;BME280;36399;51.444;-2.018;2023-09-07T08:26:41;100902.13;;;22.49;100.00
43436;BME280;36399;51.444;-2.018;2023-09-07T08:29:08;100901.75;;;22.61;100.00
43436;BME280;36399;51.444;-2.018;2023-09-07T08:31:40;100884.41;;;22.75;100.00
43436;BME280;36399;51.444;-2.018;2023-09-07T08:34:07;100883.88;;;22.93;100.00
43436;BME280;36399;51.444;-2.018;2023-09-07T08:36:37;100884.31;;;23.07;100.00
43436;BME280;36399;51.444;-2.018;2023-09-07T08:39:04;100885.72;;;23.19;100.00
43436;BME280;36399;51.444;-2.018;2023-09-07T08:41:32;100884.56;;;23.54;100.00
43436;BME280;36399;51.444;-2.018;2023-09-07T08:44:04;100880.13;;;23.53;100.00
43436;BME280;36399;51.444;-2.018;2023-09-07T08:46:31;100876.13;;;23.66;100.00
43436;BME280;36399;51.444;-2.018;2023-09-07T08:48:57;100870.03;;;23.87;100.00
43436;BME280;36399;51.444;-2.018;2023-09-07T08:51:25;100870.06;;;23.86;100.00
43436;BME280;36399;51.444;-2.018;2023-09-07T08:53:53;100862.69;;;23.92;100.00
43436;BME280;36399;51.444;-2.018;2023-09-07T08:56:22;100866.94;;;24.00;100.00
43436;BME280;36399;51.444;-2.018;2023-09-07T08:58:48;100873.63;;;23.86;100.00
43436;BME280;36399;51.444;-2.018;2023-09-07T09:01:18;100867.91;;;23.97;100.00
43436;BME280;36399;51.444;-2.018;2023-09-07T09:03:45;100859.50;;;24.31;100.00
43436;BME280;36399;51.444;-2.018;2023-09-07T09:06:11;100852.81;;;24.43;100.00
43436;BME280;36399;51.444;-2.018;2023-09-07T09:08:46;100852.75;;;24.44;100.00
43436;BME280;36399;51.444;-2.018;2023-09-07T09:11:15;100850.19;;;24.41;100.00
43436;BME280;36399;51.444;-2.018;2023-09-07T09:13:42;100849.19;;;24.44;100.00
43436;BME280;36399;51.444;-2.018;2023-09-07T09:16:09;100850.63;;;24.76;100.00
43436;BME280;36399;51.444;-2.018;2023-09-07T09:18:35;100854.22;;;25.00;100.00
43436;BME280;36399;51.444;-2.018;2023-09-07T09:21:01;100848.00;;;25.20;100.00
43436;BME280;36399;51.444;-2.018;2023-09-07T09:23:33;100845.06;;;25.26;100.00
43436;BME280;36399;51.444;-2.018;2023-09-07T09:26:00;100843.63;;;25.17;100.00
43436;BME280;36399;51.444;-2.018;2023-09-07T09:28:26;100847.88;;;25.23;100.00
43436;BME280;36399;51.444;-2.018;2023-09-07T09:30:58;100836.53;;;25.58;100.00
43436;BME280;36399;51.444;-2.018;2023-09-07T09:33:25;100833.16;;;25.53;100.00
43436;BME280;36399;51.444;-2.018;2023-09-07T09:35:53;100841.41;;;25.48;100.00
43436;BME280;36399;51.444;-2.018;2023-09-07T09:38:19;100843.75;;;25.78;100.00
43436;BME280;36399;51.444;-2.018;2023-09-07T09:40:45;100833.03;;;26.17;100.00
43436;BME280;36399;51.444;-2.018;2023-09-07T09:43:12;100822.19;;;26.58;100.00
43436;BME280;36399;51.444;-2.018;2023-09-07T09:45:39;100822.97;;;26.79;100.00
43436;BME280;36399;51.444;-2.018;2023-09-07T09:48:05;100808.97;;;26.89;100.00
43436;BME280;36399;51.444;-2.018;2023-09-07T09:50:32;100817.16;;;27.24;100.00
43436;BME280;36399;51.444;-2.018;2023-09-07T09:53:05;100806.47;;;27.57;100.00
43436;BME280;36399;51.444;-2.018;2023-09-07T09:55:33;100807.41;;;28.41;100.00
43436;BME280;36399;51.444;-2.018;2023-09-07T09:57:59;100800.22;;;28.88;100.00
43436;BME280;36399;51.444;-2.018;2023-09-07T10:00:25;100804.53;;;29.23;100.00
43436;BME280;36399;51.444;-2.018;2023-09-07T10:03:08;100802.13;;;29.78;100.00
43436;BME280;36399;51.444;-2.018;2023-09-07T10:05:37;100795.66;;;30.52;100.00
43436;BME280;36399;51.444;-2.018;2023-09-07T10:08:09;100788.28;;;31.76;100.00
43436;BME280;36399;51.444;-2.018;2023-09-07T10:10:36;100787.50;;;32.37;100.00
43436;BME280;36399;51.444;-2.018;2023-09-07T10:13:03;100785.56;;;32.63;100.00
43436;BME280;36399;51.444;-2.018;2023-09-07T10:15:32;100787.38;;;32.88;100.00
43436;BME280;36399;51.444;-2.018;2023-09-07T10:18:15;100780.03;;;33.71;100.00
43436;BME280;36399;51.444;-2.018;2023-09-07T10:20:55;100776.09;;;33.75;100.00
43436;BME280;36399;51.444;-2.018;2023-09-07T10:23:22;100776.03;;;33.42;100.00
43436;BME280;36399;51.444;-2.018;2023-09-07T10:25:51;100775.00;;;33.32;100.00
43436;BME280;36399;51.444;-2.018;2023-09-07T10:28:21;100778.06;;;33.73;100.00
43436;BME280;36399;51.444;-2.018;2023-09-07T10:30:58;100767.84;;;34.89;100.00
43436;BME280;36399;51.444;-2.018;2023-09-07T10:33:24;100761.28;;;34.24;100.00
43436;BME280;36399;51.444;-2.018;2023-09-07T10:35:49;100768.72;;;34.89;100.00
43436;BME280;36399;51.444;-2.018;2023-09-07T10:38:15;100764.81;;;35.77;100.00
43436;BME280;36399;51.444;-2.018;2023-09-07T10:40:44;100768.97;;;35.92;100.00
43436;BME280;36399;51.444;-2.018;2023-09-07T10:43:13;100762.41;;;36.04;100.00
43436;BME280;36399;51.444;-2.018;2023-09-07T10:45:39;100759.66;;;36.34;100.00
43436;BME280;36399;51.444;-2.018;2023-09-07T10:48:05;100760.59;;;35.72;100.00
43436;BME280;36399;51.444;-2.018;2023-09-07T10:50:45;100756.66;;;36.38;100.00
43436;BME280;36399;51.444;-2.018;2023-09-07T10:53:12;100748.50;;;36.47;99.54
43436;BME280;36399;51.444;-2.018;2023-09-07T10:55:40;100746.81;;;36.75;95.11
43436;BME280;36399;51.444;-2.018;2023-09-07T10:58:06;100745.00;;;37.05;94.02
43436;BME280;36399;51.444;-2.018;2023-09-07T11:00:33;100744.94;;;36.66;93.10
43436;BME280;36399;51.444;-2.018;2023-09-07T11:02:59;100750.41;;;36.66;92.54
43436;BME280;36399;51.444;-2.018;2023-09-07T11:05:25;100739.66;;;36.34;91.81
43436;BME280;36399;51.444;-2.018;2023-09-07T11:07:52;100742.34;;;35.73;94.36
43436;BME280;36399;51.444;-2.018;2023-09-07T11:10:19;100734.63;;;35.78;94.42
43436;BME280;36399;51.444;-2.018;2023-09-07T11:12:47;100727.59;;;36.06;92.25
43436;BME280;36399;51.444;-2.018;2023-09-07T11:15:13;100735.91;;;36.85;92.24
43436;BME280;36399;51.444;-2.018;2023-09-07T11:17:39;100734.19;;;37.13;90.99
43436;BME280;36399;51.444;-2.018;2023-09-07T11:20:08;100734.75;;;36.78;90.32
43436;BME280;36399;51.444;-2.018;2023-09-07T11:22:36;100732.16;;;36.86;90.93
43436;BME280;36399;51.444;-2.018;2023-09-07T11:25:05;100725.22;;;36.72;89.11
43436;BME280;36399;51.444;-2.018;2023-09-07T11:27:32;100720.22;;;37.54;90.77
43436;BME280;36399;51.444;-2.018;2023-09-07T11:29:57;100711.13;;;37.54;85.54
43436;BME280;36399;51.444;-2.018;2023-09-07T11:32:24;100718.63;;;37.42;86.36
43436;BME280;36399;51.444;-2.018;2023-09-07T11:34:51;100712.81;;;37.65;84.78
43436;BME280;36399;51.444;-2.018;2023-09-07T11:37:22;100707.19;;;38.40;83.92
43436;BME280;36399;51.444;-2.018;2023-09-07T11:39:48;100708.28;;;38.93;82.90
43436;BME280;36399;51.444;-2.018;2023-09-07T11:42:14;100711.16;;;39.44;79.76
43436;BME280;36399;51.444;-2.018;2023-09-07T11:44:39;100702.66;;;38.76;78.97
43436;BME280;36399;51.444;-2.018;2023-09-07T11:47:06;100696.44;;;38.92;77.65
43436;BME280;36399;51.444;-2.018;2023-09-07T11:49:32;100695.19;;;38.87;76.98
43436;BME280;36399;51.444;-2.018;2023-09-07T11:51:59;100688.38;;;38.28;75.62
43436;BME280;36399;51.444;-2.018;2023-09-07T11:54:25;100682.72;;;38.92;75.35
43436;BME280;36399;51.444;-2.018;2023-09-07T11:56:51;100681.78;;;38.83;74.10
43436;BME280;36399;51.444;-2.018;2023-09-07T11:59:17;100676.13;;;37.85;75.94
43436;BME280;36399;51.444;-2.018;2023-09-07T12:01:43;100679.41;;;37.51;75.61
43436;BME280;36399;51.444;-2.018;2023-09-07T12:04:09;100672.94;;;37.52;76.05
43436;BME280;36399;51.444;-2.018;2023-09-07T12:06:35;100664.94;;;37.69;75.15
43436;BME280;36399;51.444;-2.018;2023-09-07T12:09:06;100670.97;;;37.82;76.11
43436;BME280;36399;51.444;-2.018;2023-09-07T12:11:32;100667.72;;;37.96;73.86
43436;BME280;36399;51.444;-2.018;2023-09-07T12:13:59;100669.16;;;38.00;76.03
43436;BME280;36399;51.444;-2.018;2023-09-07T12:16:26;100663.94;;;37.97;72.18
43436;BME280;36399;51.444;-2.018;2023-09-07T12:18:52;100670.47;;;38.51;75.42
43436;BME280;36399;51.444;-2.018;2023-09-07T12:21:19;100667.19;;;38.83;73.07
43436;BME280;36399;51.444;-2.018;2023-09-07T12:23:45;100665.03;;;39.30;72.42
43436;BME280;36399;51.444;-2.018;2023-09-07T12:26:12;100660.19;;;39.24;72.37
43436;BME280;36399;51.444;-2.018;2023-09-07T12:28:38;100668.06;;;38.83;68.68